createdAt,value
2023-04-14T00:02:01.667Z,7.50
2023-04-14T00:04:30.692Z,7.50
2023-04-14T00:07:00.377Z,7.50
2023-04-14T00:09:28.875Z,7.60
2023-04-14T00:11:57.855Z,7.60
2023-04-14T00:14:26.656Z,7.60
2023-04-14T00:16:54.598Z,7.60
2023-04-14T00:19:22.858Z,7.60
2023-04-14T00:21:51.247Z,7.60
2023-04-14T00:24:19.633Z,7.60
2023-04-14T00:26:47.818Z,7.70
2023-04-14T00:29:16.514Z,7.80
2023-04-14T00:31:44.586Z,7.80
2023-04-14T00:34:12.887Z,7.80
2023-04-14T00:36:41.808Z,7.80
2023-04-14T00:39:10.123Z,7.70
2023-04-14T00:41:38.078Z,7.60
2023-04-14T00:44:06.502Z,7.60
2023-04-14T00:46:34.464Z,7.60
2023-04-14T00:49:04.191Z,7.60
2023-04-14T00:51:32.946Z,7.60
2023-04-14T00:54:03.762Z,7.60
2023-04-14T00:56:32.358Z,7.60
2023-04-14T00:59:02.650Z,7.70
2023-04-14T01:01:31.682Z,7.70
2023-04-14T01:04:00.115Z,7.60
2023-04-14T01:06:28.969Z,7.60
2023-04-14T01:08:58.183Z,7.60
2023-04-14T01:11:51.003Z,7.60
2023-04-14T01:14:37.299Z,7.60
2023-04-14T01:17:14.930Z,7.60
2023-04-14T01:20:18.612Z,7.70
2023-04-14T01:23:08.076Z,7.80
2023-04-14T01:25:54.895Z,7.80
2023-04-14T01:28:44.364Z,7.80
2023-04-14T01:31:18.330Z,7.80
2023-04-14T01:33:54.424Z,7.80
2023-04-14T01:36:29.057Z,7.70
2023-04-14T01:38:58.763Z,7.60
2023-04-14T01:41:28.977Z,7.70
2023-04-14T01:43:59.519Z,7.60
2023-04-14T01:46:27.795Z,7.50
2023-04-14T01:48:56.847Z,7.50
2023-04-14T01:51:27.952Z,7.50
2023-04-14T01:53:59.077Z,7.50
2023-04-14T01:56:29.508Z,7.50
2023-04-14T01:58:59.085Z,7.50
2023-04-14T02:01:29.309Z,7.50
2023-04-14T02:04:00.479Z,7.60
2023-04-14T02:06:32.234Z,7.60
2023-04-14T02:09:03.286Z,7.70
2023-04-14T02:11:34.243Z,7.70
2023-04-14T02:14:05.266Z,7.80
2023-04-14T02:16:37.063Z,7.80
2023-04-14T02:19:06.625Z,7.80
2023-04-14T02:21:35.942Z,7.80
2023-04-14T02:24:04.846Z,7.70
2023-04-14T02:26:36.379Z,7.60
2023-04-14T02:29:16.315Z,7.70
2023-04-14T02:31:50.368Z,7.70
2023-04-14T02:34:24.035Z,7.70
2023-04-14T02:36:55.893Z,7.60
2023-04-14T02:39:33.092Z,7.60
2023-04-14T02:42:08.535Z,7.60
2023-04-14T02:44:42.118Z,7.60
2023-04-14T02:47:13.875Z,7.60
2023-04-14T02:49:48.229Z,7.70
2023-04-14T02:52:22.529Z,7.70
2023-04-14T02:54:51.617Z,7.60
2023-04-14T02:57:21.038Z,7.60
2023-04-14T02:59:53.404Z,7.60
2023-04-14T03:02:23.292Z,7.60
2023-04-14T03:05:01.113Z,7.60
2023-04-14T03:07:38.501Z,7.60
2023-04-14T03:10:09.360Z,7.60
2023-04-14T03:12:39.594Z,7.60
2023-04-14T03:15:08.991Z,7.60
2023-04-14T03:17:38.507Z,7.60
2023-04-14T03:20:07.994Z,7.60
2023-04-14T03:22:41.293Z,7.60
2023-04-14T03:25:13.439Z,7.60
2023-04-14T03:27:45.912Z,7.60
2023-04-14T03:30:15.032Z,7.60
2023-04-14T03:32:47.261Z,7.60
2023-04-14T03:35:15.921Z,7.60
2023-04-14T03:37:46.645Z,7.60
2023-04-14T03:40:20.750Z,7.60
2023-04-14T03:42:52.056Z,7.50
2023-04-14T03:45:22.226Z,7.60
2023-04-14T03:47:53.896Z,7.60
2023-04-14T03:50:24.486Z,7.60
2023-04-14T03:52:55.612Z,7.60
2023-04-14T03:55:27.286Z,7.60
2023-04-14T03:58:02.766Z,7.50
2023-04-14T04:00:33.563Z,7.50
2023-04-14T04:03:03.111Z,7.50
2023-04-14T04:05:33.303Z,7.50
2023-04-14T04:08:03.757Z,7.50
2023-04-14T04:10:36.109Z,7.50
2023-04-14T04:13:13.079Z,7.40
2023-04-14T04:15:43.002Z,7.40
2023-04-14T04:18:17.318Z,7.40
2023-04-14T04:20:47.736Z,7.40
2023-04-14T04:23:19.512Z,7.40
2023-04-14T04:25:48.179Z,7.40
2023-04-14T04:28:24.365Z,7.40
2023-04-14T04:30:55.396Z,7.30
2023-04-14T04:33:24.771Z,7.30
2023-04-14T04:35:55.223Z,7.30
2023-04-14T04:38:26.276Z,7.20
2023-04-14T04:40:55.477Z,7.30
2023-04-14T04:43:27.533Z,7.20
2023-04-14T04:46:19.406Z,7.20
2023-04-14T04:48:53.290Z,7.30
2023-04-14T04:51:22.171Z,7.30
2023-04-14T04:53:50.963Z,7.40
2023-04-14T04:56:19.128Z,7.30
2023-04-14T04:58:47.707Z,7.30
2023-04-14T05:01:17.892Z,7.30
2023-04-14T05:03:46.729Z,7.30
2023-04-14T05:06:14.621Z,7.30
2023-04-14T05:08:43.572Z,7.30
2023-04-14T05:11:11.595Z,7.30
2023-04-14T05:13:39.960Z,7.20
2023-04-14T05:16:10.490Z,7.20
2023-04-14T05:18:39.877Z,7.30
2023-04-14T05:21:10.078Z,7.40
2023-04-14T05:23:40.009Z,7.40
2023-04-14T05:26:31.303Z,7.40
2023-04-14T05:28:56.833Z,7.50
2023-04-14T05:31:24.927Z,7.50
2023-04-14T05:33:53.297Z,7.50
2023-04-14T05:36:21.880Z,7.50
2023-04-14T05:38:50.508Z,7.50
2023-04-14T05:41:18.843Z,7.50
2023-04-14T05:43:47.627Z,7.50
2023-04-14T05:46:15.842Z,7.60
2023-04-14T05:48:44.419Z,7.60
2023-04-14T05:51:12.449Z,7.60
2023-04-14T05:53:41.246Z,7.70
2023-04-14T05:56:12.101Z,7.60
2023-04-14T05:58:40.507Z,7.60
2023-04-14T06:01:08.447Z,7.60
2023-04-14T06:03:40.205Z,7.70
2023-04-14T06:06:09.200Z,7.70
2023-04-14T06:08:37.683Z,7.60
2023-04-14T06:11:08.002Z,7.70
2023-04-14T06:13:36.559Z,7.70
2023-04-14T06:16:04.898Z,7.80
2023-04-14T06:18:33.475Z,7.80
2023-04-14T06:21:03.258Z,7.80
2023-04-14T06:23:32.963Z,7.80
2023-04-14T06:26:02.034Z,7.70
2023-04-14T06:28:30.369Z,7.70
2023-04-14T06:30:58.284Z,7.80
2023-04-14T06:33:26.562Z,7.80
2023-04-14T06:35:55.270Z,7.80
2023-04-14T06:38:25.777Z,7.90
2023-04-14T06:40:53.956Z,7.80
2023-04-14T06:43:22.257Z,7.90
2023-04-14T06:45:51.310Z,8.00
2023-04-14T06:48:20.746Z,8.00
2023-04-14T06:50:56.397Z,7.90
2023-04-14T06:53:24.882Z,7.90
2023-04-14T06:55:59.835Z,7.90
2023-04-14T06:58:29.771Z,8.00
2023-04-14T07:01:02.345Z,7.90
2023-04-14T07:03:32.891Z,7.90
2023-04-14T07:06:09.605Z,8.00
2023-04-14T07:08:39.139Z,8.00
2023-04-14T07:11:10.664Z,8.00
2023-04-14T07:13:40.801Z,8.10
2023-04-14T07:16:09.182Z,8.20
2023-04-14T07:18:37.850Z,8.10
2023-04-14T07:21:06.043Z,8.10
2023-04-14T07:23:34.982Z,8.10
2023-04-14T07:26:03.284Z,8.00
2023-04-14T07:28:32.986Z,8.00
2023-04-14T07:31:11.135Z,8.10
2023-04-14T07:33:40.293Z,8.20
2023-04-14T07:36:09.820Z,8.30
2023-04-14T07:38:38.354Z,8.30
2023-04-14T07:41:07.316Z,8.30
2023-04-14T07:43:36.692Z,8.30
2023-04-14T07:46:08.763Z,8.40
2023-04-14T07:48:38.376Z,8.40
2023-04-14T07:51:07.368Z,8.40
2023-04-14T07:53:40.770Z,8.50
2023-04-14T07:56:08.929Z,8.50
2023-04-14T07:58:37.636Z,8.60
2023-04-14T08:01:07.029Z,8.70
2023-04-14T08:03:39.000Z,8.80
2023-04-14T08:06:08.503Z,8.90
2023-04-14T08:08:37.398Z,8.90
2023-04-14T08:11:05.165Z,8.90
2023-04-14T08:13:33.854Z,8.80
2023-04-14T08:16:01.977Z,8.90
2023-04-14T08:18:30.692Z,9.00
2023-04-14T08:20:58.676Z,9.00
2023-04-14T08:23:27.158Z,9.00
2023-04-14T08:25:55.132Z,8.90
2023-04-14T08:28:23.523Z,8.80
2023-04-14T08:30:51.598Z,8.80
2023-04-14T08:33:20.360Z,8.80
2023-04-14T08:35:56.198Z,8.80
2023-04-14T08:38:29.656Z,8.90
2023-04-14T08:40:59.142Z,9.00
2023-04-14T08:43:28.840Z,9.00
2023-04-14T08:45:58.809Z,9.20
2023-04-14T08:48:31.432Z,9.40
2023-04-14T08:51:05.134Z,9.40
2023-04-14T08:53:36.078Z,9.50
2023-04-14T08:56:05.588Z,9.60
2023-04-14T08:58:35.297Z,9.80
2023-04-14T09:01:03.883Z,9.80
2023-04-14T09:03:33.633Z,9.70
2023-04-14T09:06:03.093Z,9.70
2023-04-14T09:08:34.556Z,9.60
2023-04-14T09:11:04.078Z,9.70
2023-04-14T09:13:32.774Z,9.70
2023-04-14T09:16:02.159Z,9.70
2023-04-14T09:18:34.578Z,9.70
2023-04-14T09:21:32.954Z,9.60
2023-04-14T09:23:54.419Z,9.50
2023-04-14T09:26:23.757Z,9.60
2023-04-14T09:28:53.332Z,9.70
2023-04-14T09:31:21.422Z,9.70
2023-04-14T09:33:51.470Z,9.80
2023-04-14T09:36:24.757Z,9.90
2023-04-14T09:38:53.735Z,10.00
2023-04-14T09:41:23.410Z,10.00
2023-04-14T09:43:53.251Z,9.90
2023-04-14T09:46:21.639Z,10.00
2023-04-14T09:48:57.001Z,9.80
2023-04-14T09:51:29.944Z,9.70
2023-04-14T09:54:05.708Z,9.60
2023-04-14T09:56:34.491Z,9.50
2023-04-14T09:59:04.434Z,9.50
2023-04-14T10:01:34.799Z,9.60
2023-04-14T10:04:04.508Z,9.70
2023-04-14T10:06:32.718Z,9.70
2023-04-14T10:09:02.184Z,9.80
2023-04-14T10:11:35.517Z,9.80
2023-04-14T10:14:07.399Z,9.70
2023-04-14T10:16:35.348Z,9.70
2023-04-14T10:19:04.359Z,9.70
2023-04-14T10:21:33.124Z,9.70
2023-04-14T10:24:02.644Z,9.70
2023-04-14T10:26:30.830Z,9.80
2023-04-14T10:28:59.773Z,9.80
2023-04-14T10:31:33.009Z,9.90
2023-04-14T10:34:09.560Z,10.00
2023-04-14T10:36:37.835Z,10.10
2023-04-14T10:39:07.854Z,10.20
2023-04-14T10:41:44.639Z,10.40
2023-04-14T10:44:30.217Z,10.50
2023-04-14T10:47:01.075Z,10.70
2023-04-14T10:49:40.501Z,11.00
2023-04-14T10:52:17.763Z,11.00
2023-04-14T10:55:08.104Z,11.00
2023-04-14T10:57:44.343Z,10.80
2023-04-14T11:00:28.066Z,10.50
2023-04-14T11:03:03.478Z,10.30
2023-04-14T11:05:34.393Z,10.10
2023-04-14T11:08:12.558Z,10.00
2023-04-14T11:10:42.373Z,10.00
2023-04-14T11:13:14.231Z,10.10
2023-04-14T11:15:57.584Z,10.10
2023-04-14T11:18:32.832Z,10.10
2023-04-14T11:21:13.802Z,10.10
2023-04-14T11:23:42.562Z,10.20
2023-04-14T11:26:12.592Z,10.30
2023-04-14T11:28:43.587Z,10.40
2023-04-14T11:31:13.771Z,10.40
2023-04-14T11:33:42.861Z,10.40
2023-04-14T11:36:13.293Z,10.30
2023-04-14T11:38:42.815Z,10.30
2023-04-14T11:41:14.556Z,10.30
2023-04-14T11:43:47.262Z,10.40
2023-04-14T11:46:16.975Z,10.50
2023-04-14T11:48:45.110Z,10.60
2023-04-14T11:51:13.511Z,10.60
2023-04-14T11:53:43.595Z,10.70
2023-04-14T11:56:13.552Z,10.70
2023-04-14T11:58:41.937Z,10.70
2023-04-14T12:01:14.804Z,10.70
2023-04-14T12:03:43.670Z,10.80
2023-04-14T12:06:12.718Z,10.70
2023-04-14T12:08:40.877Z,10.60
2023-04-14T12:11:17.124Z,10.50
2023-04-14T12:13:46.915Z,10.40
2023-04-14T12:16:17.251Z,10.30
2023-04-14T12:18:46.204Z,10.20
2023-04-14T12:21:19.359Z,10.10
2023-04-14T12:23:51.310Z,10.00
2023-04-14T12:26:21.824Z,10.00
2023-04-14T12:28:58.017Z,9.90
2023-04-14T12:31:33.055Z,9.80
2023-04-14T12:34:04.287Z,9.70
2023-04-14T12:36:48.722Z,9.60
2023-04-14T12:39:18.120Z,9.60
2023-04-14T12:41:47.947Z,9.50
2023-04-14T12:44:21.977Z,9.50
2023-04-14T12:46:54.289Z,9.60
2023-04-14T12:49:37.587Z,9.60
2023-04-14T12:52:08.744Z,9.60
2023-04-14T12:54:52.005Z,9.60
2023-04-14T12:57:22.430Z,9.60
2023-04-14T12:59:50.771Z,9.70
2023-04-14T13:02:19.500Z,9.70
2023-04-14T13:04:47.618Z,9.80
2023-04-14T13:07:16.219Z,9.90
2023-04-14T13:09:45.204Z,9.80
2023-04-14T13:12:13.331Z,9.80
2023-04-14T13:14:41.139Z,9.80
2023-04-14T13:17:10.199Z,10.00
2023-04-14T13:19:38.220Z,10.10
2023-04-14T13:22:06.389Z,10.10
2023-04-14T13:24:34.620Z,10.00
2023-04-14T13:27:03.359Z,10.10
2023-04-14T13:29:33.510Z,10.10
2023-04-14T13:32:01.718Z,10.00
2023-04-14T13:34:29.917Z,10.00
2023-04-14T13:36:58.041Z,9.90
2023-04-14T13:39:25.888Z,9.80
2023-04-14T13:41:55.554Z,9.90
2023-04-14T13:44:23.916Z,9.90
2023-04-14T13:46:52.667Z,10.00
2023-04-14T13:49:20.540Z,10.10
2023-04-14T13:51:48.912Z,10.20
2023-04-14T13:54:16.835Z,10.30
2023-04-14T13:56:45.320Z,10.40
2023-04-14T13:59:16.456Z,10.50
2023-04-14T14:01:44.838Z,10.60
2023-04-14T14:04:12.972Z,10.80
2023-04-14T14:06:41.499Z,10.80
2023-04-14T14:09:09.866Z,10.80
2023-04-14T14:11:42.484Z,10.80
2023-04-14T14:14:13.188Z,10.70
2023-04-14T14:16:41.294Z,10.70
2023-04-14T14:19:11.226Z,10.70
2023-04-14T14:21:40.183Z,10.80
2023-04-14T14:24:07.987Z,10.80
2023-04-14T14:26:36.226Z,10.80
2023-04-14T14:29:04.990Z,10.80
2023-04-14T14:31:33.627Z,10.70
2023-04-14T14:34:02.646Z,10.60
2023-04-14T14:36:31.493Z,10.60
2023-04-14T14:38:59.466Z,10.60
2023-04-14T14:41:27.752Z,10.50
2023-04-14T14:43:55.733Z,10.50
2023-04-14T14:46:24.465Z,10.50
2023-04-14T14:48:52.397Z,10.40
2023-04-14T14:51:20.556Z,10.40
2023-04-14T14:53:48.272Z,10.30
2023-04-14T14:56:17.095Z,10.30
2023-04-14T14:58:44.991Z,10.30
2023-04-14T15:01:13.260Z,10.30
2023-04-14T15:03:41.082Z,10.30
2023-04-14T15:06:09.420Z,10.20
2023-04-14T15:08:37.293Z,10.30
2023-04-14T15:11:05.638Z,10.30
2023-04-14T15:13:33.988Z,10.30
2023-04-14T15:16:02.717Z,10.40
2023-04-14T15:18:30.556Z,10.50
2023-04-14T15:20:58.755Z,10.50
2023-04-14T15:23:26.817Z,10.50
2023-04-14T15:25:55.045Z,10.50
2023-04-14T15:28:24.249Z,10.50
2023-04-14T15:30:52.622Z,10.50
2023-04-14T15:33:20.898Z,10.50
2023-04-14T15:35:49.063Z,10.40
2023-04-14T15:38:16.888Z,10.40
2023-04-14T15:40:45.072Z,10.40
2023-04-14T15:43:12.752Z,10.40
2023-04-14T15:45:40.913Z,10.40
2023-04-14T15:48:09.176Z,10.40
2023-04-14T15:50:44.501Z,10.40
2023-04-14T15:53:13.167Z,10.30
2023-04-14T15:55:41.440Z,10.30
2023-04-14T15:58:09.338Z,10.20
2023-04-14T16:00:38.040Z,10.20
2023-04-14T16:03:06.083Z,10.20
2023-04-14T16:05:34.727Z,10.30
2023-04-14T16:08:02.573Z,10.30
2023-04-14T16:10:31.041Z,10.20
2023-04-14T16:12:58.973Z,10.10
2023-04-14T16:15:27.748Z,10.00
2023-04-14T16:17:56.583Z,10.00
2023-04-14T16:20:25.151Z,10.00
2023-04-14T16:22:53.237Z,9.90
2023-04-14T16:25:24.567Z,10.00
2023-04-14T16:27:52.585Z,10.00
2023-04-14T16:30:20.990Z,10.00
2023-04-14T16:32:49.212Z,10.00
2023-04-14T16:35:17.637Z,10.00
2023-04-14T16:37:45.701Z,9.90
2023-04-14T16:40:14.391Z,9.80
2023-04-14T16:42:42.277Z,9.70
2023-04-14T16:45:11.548Z,9.60
2023-04-14T16:47:39.982Z,9.60
2023-04-14T16:50:08.819Z,9.60
2023-04-14T16:52:36.954Z,9.60
2023-04-14T16:55:06.285Z,9.60
2023-04-14T16:57:34.409Z,9.50
2023-04-14T17:00:03.317Z,9.50
2023-04-14T17:02:31.764Z,9.50
2023-04-14T17:05:00.282Z,9.50
2023-04-14T17:07:28.535Z,9.50
2023-04-14T17:09:57.678Z,9.50
2023-04-14T17:12:28.762Z,9.50
2023-04-14T17:14:57.228Z,9.50
2023-04-14T17:17:25.079Z,9.40
2023-04-14T17:19:55.217Z,9.40
2023-04-14T17:22:25.246Z,9.40
2023-04-14T17:24:54.352Z,9.40
2023-04-14T17:27:23.297Z,9.40
2023-04-14T17:29:52.171Z,9.40
2023-04-14T17:32:22.820Z,9.40
2023-04-14T17:34:52.740Z,9.40
2023-04-14T17:37:21.909Z,9.50
2023-04-14T17:39:54.203Z,9.40
2023-04-14T17:42:23.154Z,9.40
2023-04-14T17:44:53.229Z,9.40
2023-04-14T17:47:22.629Z,9.40
2023-04-14T17:49:59.747Z,9.40
2023-04-14T17:52:28.865Z,9.40
2023-04-14T17:55:02.636Z,9.40
2023-04-14T17:57:31.266Z,9.40
2023-04-14T18:00:01.752Z,9.40
2023-04-14T18:02:42.603Z,9.40
2023-04-14T18:05:14.034Z,9.40
2023-04-14T18:07:44.343Z,9.30
2023-04-14T18:10:14.947Z,9.30
2023-04-14T18:12:44.220Z,9.30
2023-04-14T18:15:18.377Z,9.30
2023-04-14T18:17:48.603Z,9.40
2023-04-14T18:20:23.057Z,9.40
2023-04-14T18:22:54.144Z,9.40
2023-04-14T18:26:26.184Z,9.40
2023-04-14T18:28:16.057Z,9.40
2023-04-14T18:30:46.271Z,9.40
2023-04-14T18:33:15.106Z,9.40
2023-04-14T18:35:53.149Z,9.40
2023-04-14T18:38:23.223Z,9.40
2023-04-14T18:40:54.556Z,9.40
2023-04-14T18:43:31.685Z,9.40
2023-04-14T18:46:01.405Z,9.40
2023-04-14T18:48:30.865Z,9.40
2023-04-14T18:51:05.317Z,9.40
2023-04-14T18:53:34.150Z,9.40
2023-04-14T18:56:06.928Z,9.40
2023-04-14T18:58:43.226Z,9.40
2023-04-14T19:01:13.739Z,9.40
2023-04-14T19:03:42.300Z,9.30
2023-04-14T19:06:13.946Z,9.20
2023-04-14T19:08:44.977Z,9.20
2023-04-14T19:11:16.077Z,9.20
2023-04-14T19:13:48.478Z,9.10
2023-04-14T19:16:18.561Z,9.00
2023-04-14T19:18:49.226Z,9.10
2023-04-14T19:21:19.511Z,9.20
2023-04-14T19:23:52.134Z,9.20
2023-04-14T19:26:22.880Z,9.20
2023-04-14T19:28:53.026Z,9.20
2023-04-14T19:31:22.807Z,9.20
2023-04-14T19:33:54.756Z,9.20
2023-04-14T19:36:25.557Z,9.20
2023-04-14T19:38:57.375Z,9.20
2023-04-14T19:41:28.166Z,9.20
2023-04-14T19:43:57.755Z,9.30
2023-04-14T19:46:29.163Z,9.40
2023-04-14T19:48:59.449Z,9.40
2023-04-14T19:51:29.910Z,9.40
2023-04-14T19:53:58.968Z,9.40
2023-04-14T19:56:30.687Z,9.30
2023-04-14T19:59:00.653Z,9.30
2023-04-14T20:01:39.814Z,9.30
2023-04-14T20:04:13.027Z,9.30
2023-04-14T20:06:43.873Z,9.40
2023-04-14T20:09:12.931Z,9.40
2023-04-14T20:11:42.512Z,9.40
2023-04-14T20:14:11.467Z,9.40
2023-04-14T20:16:43.640Z,9.40
2023-04-14T20:19:12.168Z,9.50
2023-04-14T20:21:42.252Z,9.50
2023-04-14T20:24:11.900Z,9.60
2023-04-14T20:26:44.572Z,9.60
2023-04-14T20:29:14.035Z,9.60
2023-04-14T20:31:45.436Z,9.60
2023-04-14T20:34:15.875Z,9.60
2023-04-14T20:36:45.616Z,9.50
2023-04-14T20:39:13.656Z,9.50
2023-04-14T20:41:42.041Z,9.50
2023-04-14T20:44:10.664Z,9.50
2023-04-14T20:46:44.618Z,9.50
2023-04-14T20:49:13.030Z,9.50
2023-04-14T20:51:42.403Z,9.50
2023-04-14T20:54:11.067Z,9.50
2023-04-14T20:56:40.783Z,9.50
2023-04-14T20:59:11.702Z,9.50
2023-04-14T21:01:40.499Z,9.50
2023-04-14T21:04:09.299Z,9.50
2023-04-14T21:06:37.806Z,9.50
2023-04-14T21:09:06.086Z,9.50
2023-04-14T21:11:34.520Z,9.50
2023-04-14T21:15:42.345Z,9.50
2023-04-14T21:16:51.164Z,9.40
2023-04-14T21:19:19.911Z,9.40
2023-04-14T21:21:48.420Z,9.40
2023-04-14T21:24:16.174Z,9.40
2023-04-14T21:26:45.062Z,9.40
2023-04-14T21:29:13.064Z,9.40
2023-04-14T21:31:41.260Z,9.40
2023-04-14T21:34:09.047Z,9.40
2023-04-14T21:36:37.347Z,9.40
2023-04-14T21:39:05.460Z,9.40
2023-04-14T21:41:33.768Z,9.50
2023-04-14T21:44:01.979Z,9.50
2023-04-14T21:46:30.864Z,9.50
2023-04-14T21:48:58.698Z,9.60
2023-04-14T21:51:27.744Z,9.60
2023-04-14T21:53:55.526Z,9.60
2023-04-14T21:56:23.607Z,9.50
2023-04-14T21:58:51.374Z,9.50
2023-04-14T22:01:20.190Z,9.50
2023-04-14T22:03:48.065Z,9.60
2023-04-14T22:06:18.026Z,9.60
2023-04-14T22:08:45.733Z,9.60
2023-04-14T22:11:14.682Z,9.60
2023-04-14T22:13:42.493Z,9.50
2023-04-14T22:16:11.516Z,9.60
2023-04-14T22:18:42.356Z,9.60
2023-04-14T22:21:12.457Z,9.60
2023-04-14T22:23:40.422Z,9.50
2023-04-14T22:26:09.319Z,9.50
2023-04-14T22:28:37.809Z,9.50
2023-04-14T22:31:07.051Z,9.50
2023-04-14T22:33:36.132Z,9.40
2023-04-14T22:36:05.949Z,9.40
2023-04-14T22:38:34.192Z,9.40
2023-04-14T22:41:03.680Z,9.40
2023-04-14T22:43:31.953Z,9.40
2023-04-14T22:46:00.336Z,9.40
2023-04-14T22:48:28.200Z,9.40
2023-04-14T22:50:56.451Z,9.40
2023-04-14T22:53:24.265Z,9.40
2023-04-14T22:55:52.761Z,9.40
2023-04-14T22:58:22.160Z,9.50
2023-04-14T23:00:50.212Z,9.50
2023-04-14T23:03:18.439Z,9.50
2023-04-14T23:05:46.790Z,9.50
2023-04-14T23:08:14.785Z,9.40
2023-04-14T23:10:42.825Z,9.40
2023-04-14T23:13:10.586Z,9.40
2023-04-14T23:15:39.141Z,9.50
2023-04-14T23:18:06.948Z,9.50
2023-04-14T23:20:35.057Z,9.50
2023-04-14T23:23:03.864Z,9.60
2023-04-14T23:25:32.605Z,9.60
2023-04-14T23:28:00.333Z,9.60
2023-04-14T23:30:29.102Z,9.60
2023-04-14T23:32:56.759Z,9.60
2023-04-14T23:35:25.099Z,9.70
2023-04-14T23:37:52.893Z,9.70
2023-04-14T23:40:20.999Z,9.70
2023-04-14T23:42:48.990Z,9.60
2023-04-14T23:45:17.327Z,9.60
2023-04-14T23:47:46.713Z,9.60
2023-04-14T23:50:14.977Z,9.60
2023-04-14T23:52:44.497Z,9.60
2023-04-14T23:55:12.620Z,9.60
2023-04-14T23:57:41.398Z,9.60
